Time;durP1;ratioP1;P1;durP2;ratioP2;P2;SDS_P1;SDS_P2;PMS_P1;PMS_P2;Temp;Humidity;BMP_temperature;BMP_pressure;BME280_temperature;BME280_humidity;BME280_pressure;Samples;Min_cycle;Max_cycle;Signal;HPM_P1;HPM_P2
2021/03/26 11:52:14;;;;;;;4.60;3.30;;;6.20;60.40;;;;;;3807976;37;20071;-60
2021/03/26 11:54:46;;;;;;;6.05;4.00;;;6.40;60.60;;;;;;4360925;32;20657;-60
2021/03/26 11:58:05;;;;;;;5.75;2.97;;;6.50;60.20;;;;;;4357421;32;20460;-58
2021/03/26 12:00:34;;;;;;;5.68;3.67;;;6.40;61.50;;;;;;4370979;32;20097;-61
2021/03/26 12:03:12;;;;;;;5.32;3.40;;;6.50;60.70;;;;;;4339727;32;20548;-58
2021/03/26 12:06:18;;;;;;;7.35;3.87;;;6.50;60.60;;;;;;4360328;32;20065;-58
2021/03/26 12:09:11;;;;;;;5.03;3.30;;;6.50;60.70;;;;;;4356489;32;20082;-57
2021/03/26 12:12:20;;;;;;;6.45;3.90;;;6.40;61.40;;;;;;4350104;32;20638;-58
2021/03/26 12:15:12;;;;;;;5.12;3.60;;;6.50;59.50;;;;;;4355198;32;20075;-58
2021/03/26 12:18:22;;;;;;;6.28;3.90;;;6.70;59.70;;;;;;4360819;32;20436;-58
2021/03/26 12:20:50;;;;;;;5.75;3.67;;;6.60;60.10;;;;;;4364997;32;20099;-57
2021/03/26 12:23:46;;;;;;;6.70;3.80;;;6.50;61.30;;;;;;4343655;32;20520;-58
2021/03/26 12:26:20;;;;;;;4.87;3.10;;;6.40;60.80;;;;;;4337000;32;20501;-57
2021/03/26 12:28:55;;;;;;;5.57;3.08;;;6.40;60.00;;;;;;4336357;32;20075;-59
2021/03/26 12:31:43;;;;;;;5.43;3.47;;;6.50;60.30;;;;;;4357416;32;20529;-59
2021/03/26 12:34:51;;;;;;;5.35;3.67;;;6.60;60.20;;;;;;4357935;32;20110;-58
2021/03/26 12:37:29;;;;;;;6.47;3.28;;;6.60;60.80;;;;;;4359733;32;20500;-58
2021/03/26 12:40:10;;;;;;;6.80;5.85;;;6.50;60.20;;;;;;4347051;32;20066;-58
2021/03/26 12:42:42;;;;;;;6.80;3.40;;;6.40;60.90;;;;;;4336902;32;20070;-59
2021/03/26 12:45:23;;;;;;;5.75;3.53;;;6.40;59.40;;;;;;4359944;32;20078;-58
2021/03/26 12:48:02;;;;;;;4.20;3.03;;;6.40;60.60;;;;;;4353183;32;20585;-60
2021/03/26 12:50:45;;;;;;;5.65;3.50;;;6.50;59.60;;;;;;4344745;32;20067;-58
2021/03/26 12:53:35;;;;;;;7.00;3.87;;;6.60;60.10;;;;;;4346855;32;20055;-58
2021/03/26 12:56:40;;;;;;;9.90;4.22;;;6.70;60.10;;;;;;4339281;32;20480;-58
2021/03/26 12:59:44;;;;;;;6.18;3.33;;;6.70;59.50;;;;;;4372439;32;20117;-59
2021/03/26 13:02:54;;;;;;;3.22;2.70;;;6.60;60.40;;;;;;4343249;32;20091;-59
2021/03/26 13:05:29;;;;;;;4.95;3.25;;;6.50;59.70;;;;;;4354084;32;20063;-59
2021/03/26 13:08:20;;;;;;;6.05;3.58;;;6.30;58.70;;;;;;4336239;32;20509;-59
2021/03/26 13:11:25;;;;;;;5.65;3.22;;;6.50;59.30;;;;;;4347683;32;20160;-59
2021/03/26 13:14:15;;;;;;;4.47;3.17;;;6.40;60.60;;;;;;4332252;32;20086;-58
2021/03/26 13:16:43;;;;;;;4.53;3.15;;;6.40;60.10;;;;;;4337460;32;20082;-58
2021/03/26 13:19:21;;;;;;;6.15;3.42;;;6.30;60.10;;;;;;4333101;33;20078;-57
2021/03/26 13:22:48;;;;;;;5.03;3.28;;;6.50;60.00;;;;;;4345340;32;20073;-59
2021/03/26 13:25:23;;;;;;;8.70;3.37;;;6.60;60.30;;;;;;4285688;33;20075;-58
2021/03/26 13:27:56;;;;;;;5.67;3.30;;;6.50;59.60;;;;;;4324517;32;20512;-58
2021/03/26 13:30:59;;;;;;;5.12;3.20;;;6.30;59.70;;;;;;4341150;32;20134;-58
2021/03/26 13:33:38;;;;;;;5.00;3.45;;;6.40;60.40;;;;;;4312603;32;20448;-58
2021/03/26 13:36:23;;;;;;;4.90;3.30;;;6.40;60.00;;;;;;4334454;32;20086;-60
2021/03/26 13:39:23;;;;;;;7.62;4.10;;;6.50;60.40;;;;;;4323523;32;20067;-58
2021/03/26 13:42:01;;;;;;;20.00;6.50;;;6.30;60.70;;;;;;4330131;32;20064;-59
2021/03/26 13:44:40;;;;;;;7.95;4.47;;;6.30;60.90;;;;;;4317429;32;20091;-58
2021/03/26 13:47:22;;;;;;;8.57;4.70;;;6.40;61.30;;;;;;4340994;32;20070;-57
2021/03/26 13:50:07;;;;;;;5.00;3.47;;;6.40;60.20;;;;;;4338363;32;20105;-59
2021/03/26 13:53:03;;;;;;;8.52;4.03;;;6.40;61.00;;;;;;4346558;32;20161;-59
2021/03/26 13:55:45;;;;;;;10.65;4.53;;;6.30;60.60;;;;;;4340763;32;20496;-58
2021/03/26 13:58:48;;;;;;;8.27;5.07;;;6.20;61.70;;;;;;4318991;32;20070;-56
2021/03/26 14:01:24;;;;;;;9.70;4.90;;;6.20;60.40;;;;;;4347699;32;20510;-60
2021/03/26 14:03:59;;;;;;;9.27;4.95;;;6.00;60.60;;;;;;4332661;32;20146;-59
2021/03/26 14:06:48;;;;;;;13.55;6.43;;;6.10;60.80;;;;;;4346422;32;20175;-58
2021/03/26 14:09:48;;;;;;;11.55;5.15;;;6.10;60.90;;;;;;4336581;32;20101;-58
2021/03/26 14:12:25;;;;;;;6.75;3.90;;;6.10;62.60;;;;;;4315081;32;20078;-58
2021/03/26 14:14:57;;;;;;;6.15;3.37;;;6.00;61.70;;;;;;4335378;32;20147;-59
2021/03/26 14:17:40;;;;;;;5.85;3.97;;;6.00;62.20;;;;;;4345565;32;20089;-58
2021/03/26 14:20:06;;;;;;;6.45;4.12;;;5.90;63.20;;;;;;4336300;32;20130;-60
2021/03/26 14:23:00;;;;;;;7.12;3.83;;;5.80;64.90;;;;;;4341799;32;20059;-57
2021/03/26 14:25:50;;;;;;;7.12;4.78;;;5.70;65.20;;;;;;4337724;32;20055;-57
2021/03/26 14:28:33;;;;;;;7.07;4.35;;;5.50;65.40;;;;;;4330646;33;20156;-58
2021/03/26 14:31:14;;;;;;;6.00;3.47;;;5.50;65.80;;;;;;4332625;32;20142;-57
2021/03/26 14:33:44;;;;;;;7.57;4.80;;;5.50;66.40;;;;;;4330130;32;20188;-57
2021/03/26 14:36:52;;;;;;;7.60;4.43;;;5.30;66.10;;;;;;4336928;32;20078;-57
2021/03/26 14:39:35;;;;;;;6.70;4.07;;;5.30;66.50;;;;;;4359958;32;20156;-56
2021/03/26 14:42:04;;;;;;;7.60;4.70;;;5.10;66.70;;;;;;4341578;32;20070;-59
2021/03/26 14:44:58;;;;;;;6.03;3.87;;;5.10;66.80;;;;;;4335512;32;20511;-60
2021/03/26 14:47:30;;;;;;;6.90;3.78;;;4.90;66.30;;;;;;4337869;32;20067;-62
2021/03/26 14:49:59;;;;;;;7.18;3.95;;;4.80;66.00;;;;;;4338892;32;20109;-61
2021/03/26 14:52:46;;;;;;;7.97;3.90;;;4.80;68.20;;;;;;4326953;32;20062;-59
2021/03/26 14:55:12;;;;;;;6.60;3.90;;;4.70;66.60;;;;;;4354829;32;20063;-58
2021/03/26 14:58:18;;;;;;;8.40;4.05;;;4.60;65.80;;;;;;4345356;32;20058;-59
2021/03/26 15:01:12;;;;;;;6.80;4.40;;;4.50;66.80;;;;;;4333755;32;20075;-59
2021/03/26 15:04:07;;;;;;;7.28;4.03;;;4.40;67.50;;;;;;4350403;32;20075;-58
2021/03/26 15:07:01;;;;;;;6.78;4.40;;;4.40;67.20;;;;;;4337769;32;20063;-58
2021/03/26 15:09:42;;;;;;;6.43;3.78;;;4.30;67.30;;;;;;4326527;32;20079;-59
2021/03/26 15:12:33;;;;;;;6.47;4.40;;;4.30;67.50;;;;;;4323776;32;20086;-60
2021/03/26 15:15:22;;;;;;;6.45;4.03;;;4.20;67.90;;;;;;4352220;32;20071;-57
2021/03/26 15:18:20;;;;;;;4.90;3.75;;;4.10;68.80;;;;;;4332257;32;20070;-58
2021/03/26 15:20:46;;;;;;;;;;;4.10;69.90;;;;;;4332525;33;20087;-58
2021/03/26 15:23:28;;;;;;;9.68;4.35;;;4.10;68.90;;;;;;4331499;33;19969;-58
2021/03/26 15:26:25;;;;;;;7.68;4.25;;;3.90;69.70;;;;;;4338235;32;20082;-58
2021/03/26 15:29:15;;;;;;;7.12;4.07;;;3.90;72.00;;;;;;4333176;33;20070;-58
2021/03/26 15:31:59;;;;;;;7.40;4.10;;;3.90;69.90;;;;;;4328961;32;20078;-58
2021/03/26 15:34:55;;;;;;;8.88;4.30;;;3.80;69.80;;;;;;4328854;32;20497;-58
2021/03/26 15:37:46;;;;;;;7.70;4.15;;;3.70;70.80;;;;;;4322743;32;20074;-57
2021/03/26 15:40:33;;;;;;;6.37;3.95;;;3.70;70.60;;;;;;4345511;32;20067;-57
2021/03/26 15:43:24;;;;;;;7.75;3.92;;;3.60;71.20;;;;;;4339084;33;20081;-57
2021/03/26 15:45:57;;;;;;;8.80;4.50;;;3.70;72.30;;;;;;4336056;32;20068;-58
2021/03/26 15:48:45;;;;;;;6.03;3.78;;;3.60;72.80;;;;;;4332558;32;20053;-56
2021/03/26 15:51:27;;;;;;;8.07;4.47;;;3.50;72.50;;;;;;4335766;32;20167;-58
2021/03/26 15:54:09;;;;;;;7.45;4.90;;;3.60;70.50;;;;;;4331119;33;20074;-57
2021/03/26 15:56:41;;;;;;;7.55;4.57;;;3.50;71.70;;;;;;4340658;32;20094;-57
2021/03/26 15:59:32;;;;;;;6.78;4.62;;;3.50;71.60;;;;;;4309113;32;20086;-57
2021/03/26 16:02:19;;;;;;;10.90;5.78;;;3.50;70.60;;;;;;4342625;32;20070;-57
2021/03/26 16:05:04;;;;;;;12.05;5.50;;;3.40;71.30;;;;;;4319260;33;20200;-56
2021/03/26 16:08:15;;;;;;;8.48;4.28;;;3.30;72.70;;;;;;4337260;32;20063;-56
2021/03/26 16:11:08;;;;;;;9.88;4.50;;;3.30;71.20;;;;;;4326674;33;20110;-56
2021/03/26 16:14:16;;;;;;;8.40;4.20;;;3.30;71.40;;;;;;4359426;32;20089;-57
2021/03/26 16:17:12;;;;;;;8.15;4.82;;;3.30;72.10;;;;;;4273274;33;20088;-56
2021/03/26 16:19:58;;;;;;;8.73;4.35;;;3.20;72.40;;;;;;4275422;33;20083;-57
2021/03/26 16:22:39;;;;;;;7.12;4.30;;;3.30;71.50;;;;;;4325241;32;20091;-57
2021/03/26 16:25:24;;;;;;;8.30;4.43;;;3.20;72.70;;;;;;4347500;32;20083;-57
2021/03/26 16:28:28;;;;;;;8.48;4.75;;;3.10;74.60;;;;;;4323755;32;20074;-57
2021/03/26 16:31:21;;;;;;;7.90;4.15;;;3.00;73.90;;;;;;4336078;33;20579;-56
2021/03/26 16:34:28;;;;;;;7.75;4.40;;;2.90;73.90;;;;;;4320491;33;20083;-57
2021/03/26 16:37:41;;;;;;;6.22;3.83;;;3.00;72.90;;;;;;4341051;32;20497;-56
2021/03/26 16:40:39;;;;;;;5.43;3.90;;;3.00;71.50;;;;;;4334303;32;20443;-58
2021/03/26 16:43:32;;;;;;;8.70;3.87;;;3.00;72.10;;;;;;4324159;33;20075;-57
2021/03/26 16:46:13;;;;;;;5.95;4.07;;;3.00;71.70;;;;;;4355703;32;20070;-59
2021/03/26 16:49:08;;;;;;;7.55;4.20;;;2.90;72.10;;;;;;4335325;33;20079;-56
2021/03/26 16:52:06;;;;;;;8.57;5.00;;;2.90;73.00;;;;;;4333353;33;20501;-56
2021/03/26 16:54:34;;;;;;;9.93;4.97;;;2.80;72.90;;;;;;4333235;33;20113;-57
2021/03/26 16:57:44;;;;;;;6.40;4.90;;;3.00;71.50;;;;;;4342840;33;20079;-57
2021/03/26 17:00:36;;;;;;;8.90;5.68;;;2.90;73.20;;;;;;4341283;32;20071;-57
2021/03/26 17:03:30;;;;;;;6.50;4.60;;;2.90;72.50;;;;;;4332048;33;20074;-56
2021/03/26 17:06:49;;;;;;;9.95;5.50;;;2.90;72.30;;;;;;4337668;33;20151;-58
2021/03/26 17:09:47;;;;;;;9.27;5.20;;;2.80;73.10;;;;;;4343867;33;20094;-57
2021/03/26 17:12:45;;;;;;;10.93;5.62;;;2.80;75.20;;;;;;4337905;33;20067;-56
2021/03/26 17:15:30;;;;;;;7.18;5.20;;;2.70;75.50;;;;;;4346708;33;20488;-56
2021/03/26 17:18:38;;;;;;;8.65;5.75;;;2.60;75.90;;;;;;4331761;33;20591;-57
2021/03/26 17:21:35;;;;;;;8.43;5.55;;;2.40;78.80;;;;;;4342995;33;20497;-58
2021/03/26 17:24:57;;;;;;;10.57;5.85;;;2.50;76.60;;;;;;4338352;33;20148;-56
2021/03/26 17:28:09;;;;;;;7.82;5.28;;;2.50;76.20;;;;;;4348026;32;20059;-58
2021/03/26 17:31:16;;;;;;;9.18;6.32;;;2.60;76.00;;;;;;4318565;33;20180;-57
2021/03/26 17:33:58;;;;;;;8.57;5.90;;;2.70;73.90;;;;;;4347998;33;20159;-56
2021/03/26 17:37:05;;;;;;;11.43;7.47;;;2.70;74.50;;;;;;4346285;33;20094;-57
2021/03/26 17:40:03;;;;;;;11.63;7.35;;;2.50;76.00;;;;;;4354758;32;20086;-57
2021/03/26 17:43:00;;;;;;;9.35;6.57;;;2.60;75.60;;;;;;4332453;33;20138;-57
2021/03/26 17:46:06;;;;;;;10.60;6.93;;;2.50;76.80;;;;;;4337004;33;20078;-58
2021/03/26 17:48:54;;;;;;;7.95;6.15;;;2.40;75.90;;;;;;4333372;33;20074;-57
2021/03/26 17:51:42;;;;;;;7.95;5.80;;;2.40;76.00;;;;;;4342985;32;20063;-57
2021/03/26 17:55:02;;;;;;;7.80;5.12;;;2.50;78.10;;;;;;4316620;33;20518;-56
2021/03/26 17:57:47;;;;;;;9.70;6.00;;;2.40;75.40;;;;;;4327883;33;20067;-59
2021/03/26 18:00:53;;;;;;;7.00;5.65;;;2.40;76.20;;;;;;4335588;33;20082;-56
2021/03/26 18:03:40;;;;;;;6.18;4.93;;;2.40;75.40;;;;;;4331745;33;20079;-56
2021/03/26 18:06:47;;;;;;;11.63;6.75;;;2.50;74.90;;;;;;4331494;33;20094;-58
2021/03/26 18:09:46;;;;;;;9.95;5.28;;;2.30;77.30;;;;;;4329751;33;20063;-58
2021/03/26 18:12:42;;;;;;;8.13;5.40;;;2.30;79.20;;;;;;4318502;33;20178;-56
2021/03/26 18:15:11;;;;;;;10.13;6.32;;;2.30;79.00;;;;;;4331497;33;20070;-57
2021/03/26 18:18:18;;;;;;;10.25;5.47;;;2.20;81.80;;;;;;4330610;33;20169;-58
2021/03/26 18:21:31;;;;;;;14.20;10.97;;;2.20;81.20;;;;;;4316521;33;20082;-57
2021/03/26 18:24:44;;;;;;;10.70;7.57;;;2.20;78.70;;;;;;4321485;33;20170;-58
2021/03/26 18:27:51;;;;;;;11.38;8.48;;;1.90;85.00;;;;;;4305778;33;20071;-56
2021/03/26 18:30:27;;;;;;;9.93;7.68;;;1.90;82.70;;;;;;4332365;33;20105;-57
2021/03/26 18:33:46;;;;;;;10.67;7.90;;;2.00;83.20;;;;;;4334316;33;20082;-57
2021/03/26 18:36:18;;;;;;;25.73;16.12;;;1.90;85.10;;;;;;4313154;33;20107;-57
2021/03/26 18:39:12;;;;;;;23.30;14.77;;;2.00;81.10;;;;;;4332736;33;20093;-56
2021/03/26 18:42:15;;;;;;;40.67;24.20;;;2.00;80.40;;;;;;4332538;33;20174;-57
2021/03/26 18:45:08;;;;;;;9.38;6.00;;;1.90;82.20;;;;;;4319159;33;20161;-57
2021/03/26 18:48:13;;;;;;;15.93;10.60;;;1.90;80.20;;;;;;4330030;33;20094;-57
2021/03/26 18:51:02;;;;;;;14.57;10.23;;;1.90;82.10;;;;;;4338005;32;20538;-56
2021/03/26 18:53:36;;;;;;;13.35;9.23;;;1.80;84.50;;;;;;4336650;32;20442;-56
2021/03/26 18:56:20;;;;;;;12.85;7.57;;;1.70;87.10;;;;;;4348065;32;20082;-57
2021/03/26 18:59:33;;;;;;;7.68;6.10;;;1.70;86.30;;;;;;4347979;32;20074;-56
2021/03/26 19:02:17;;;;;;;11.48;6.57;;;1.70;83.70;;;;;;4276805;33;20102;-57
2021/03/26 19:05:21;;;;;;;12.80;6.68;;;1.60;86.50;;;;;;4330954;32;20102;-56
2021/03/26 19:08:00;;;;;;;11.90;7.12;;;1.70;86.10;;;;;;4327063;32;20449;-57
2021/03/26 19:11:08;;;;;;;13.80;7.85;;;1.50;91.00;;;;;;4320858;33;20078;-57
2021/03/26 19:13:45;;;;;;;13.35;7.72;;;1.70;84.10;;;;;;4333295;32;20176;-57
2021/03/26 19:16:12;;;;;;;15.55;7.78;;;1.60;88.80;;;;;;4333073;33;20063;-57
2021/03/26 19:18:51;;;;;;;13.65;7.07;;;1.60;86.00;;;;;;4340828;32;20165;-58
2021/03/26 19:21:38;;;;;;;15.10;8.38;;;1.60;84.10;;;;;;4322715;32;20078;-57
2021/03/26 19:24:42;;;;;;;13.18;7.80;;;1.60;90.00;;;;;;4339276;32;20155;-56
2021/03/26 19:27:46;;;;;;;13.88;7.50;;;1.50;90.60;;;;;;4345337;33;20074;-56
2021/03/26 19:30:15;;;;;;;11.63;6.93;;;1.40;88.90;;;;;;4336044;32;20055;-57
2021/03/26 19:33:15;;;;;;;13.27;7.10;;;1.50;90.10;;;;;;4320104;33;20069;-58
2021/03/26 19:36:09;;;;;;;14.15;7.80;;;1.40;87.60;;;;;;4361324;32;20050;-57
2021/03/26 19:39:18;;;;;;;14.18;7.75;;;1.40;86.10;;;;;;4327514;32;20145;-58
2021/03/26 19:42:23;;;;;;;9.90;6.43;;;1.30;85.40;;;;;;4330660;32;20073;-57
2021/03/26 19:45:02;;;;;;;10.30;6.43;;;1.50;85.20;;;;;;4339371;33;20086;-57
2021/03/26 19:47:34;;;;;;;12.15;7.20;;;1.50;82.40;;;;;;4345893;32;20065;-56
2021/03/26 19:50:41;;;;;;;12.07;6.75;;;1.50;83.80;;;;;;4346856;32;20203;-57
2021/03/26 19:53:34;;;;;;;10.88;7.07;;;1.50;83.10;;;;;;4339254;32;20069;-57
2021/03/26 19:56:24;;;;;;;13.02;7.25;;;1.50;85.60;;;;;;4336477;32;20082;-57
2021/03/26 19:59:12;;;;;;;12.98;8.48;;;1.40;88.20;;;;;;4347148;32;20151;-57
2021/03/26 20:01:54;;;;;;;13.52;7.75;;;1.20;90.30;;;;;;4337941;32;20449;-57
2021/03/26 20:04:46;;;;;;;11.05;6.55;;;1.30;90.80;;;;;;4332909;33;20094;-57
2021/03/26 20:07:48;;;;;;;10.30;5.95;;;1.50;83.80;;;;;;4334037;32;20149;-57
2021/03/26 20:10:22;;;;;;;10.80;6.05;;;1.70;80.30;;;;;;4336271;32;20202;-56
2021/03/26 20:13:29;;;;;;;10.98;6.20;;;1.70;79.90;;;;;;4321554;32;20525;-58
2021/03/26 20:16:09;;;;;;;11.38;5.90;;;1.80;78.30;;;;;;4325477;32;20071;-56
2021/03/26 20:18:53;;;;;;;10.38;6.22;;;2.00;76.30;;;;;;4328997;33;20071;-57
2021/03/26 20:21:36;;;;;;;8.55;5.90;;;2.00;75.60;;;;;;4321970;32;20156;-58
2021/03/26 20:24:40;;;;;;;9.15;5.85;;;1.90;75.80;;;;;;4340526;32;20070;-56
2021/03/26 20:27:14;;;;;;;8.38;5.20;;;1.90;76.00;;;;;;4322769;33;20082;-57
2021/03/26 20:29:56;;;;;;;8.07;5.28;;;1.90;75.60;;;;;;4336927;32;20071;-56
2021/03/26 20:32:40;;;;;;;7.85;5.37;;;2.00;75.50;;;;;;4336390;33;20507;-56
2021/03/26 20:35:33;;;;;;;9.82;5.47;;;1.90;76.30;;;;;;4334168;32;20063;-57
2021/03/26 20:38:47;;;;;;;10.18;5.70;;;1.90;76.30;;;;;;4348675;32;20067;-57
2021/03/26 20:41:48;;;;;;;9.68;6.30;;;2.00;76.60;;;;;;4335469;32;20066;-56
2021/03/26 20:44:44;;;;;;;10.00;6.28;;;2.10;76.00;;;;;;4340696;32;20080;-57
2021/03/26 20:47:27;;;;;;;9.57;6.28;;;2.10;76.00;;;;;;4350135;32;20093;-56
2021/03/26 20:50:18;;;;;;;10.75;7.15;;;1.90;78.80;;;;;;4338787;32;20066;-57
2021/03/26 20:53:00;;;;;;;12.55;7.37;;;2.00;78.30;;;;;;4335000;33;20085;-58
2021/03/26 20:56:30;;;;;;;14.75;9.05;;;1.70;79.90;;;;;;4327200;33;20071;-58
2021/03/26 20:59:40;;;;;;;15.13;8.52;;;1.60;82.40;;;;;;4348337;33;20489;-57
2021/03/26 21:02:46;;;;;;;12.52;7.80;;;1.50;84.10;;;;;;4315072;33;20086;-57
2021/03/26 21:05:44;;;;;;;11.70;7.80;;;1.50;84.80;;;;;;4323463;33;20506;-57
2021/03/26 21:08:22;;;;;;;13.85;7.93;;;1.40;85.90;;;;;;4317396;32;20086;-57
2021/03/26 21:11:07;;;;;;;13.30;8.45;;;1.40;86.70;;;;;;4322933;33;20077;-56
2021/03/26 21:13:57;;;;;;;10.20;7.40;;;1.50;86.20;;;;;;4352410;32;20064;-56
2021/03/26 21:16:56;;;;;;;11.12;7.70;;;1.40;86.50;;;;;;4328201;33;20068;-57
2021/03/26 21:19:52;;;;;;;11.85;7.45;;;1.40;87.10;;;;;;4338613;32;20101;-58
2021/03/26 21:22:41;;;;;;;15.07;9.05;;;1.20;88.30;;;;;;4337876;33;20580;-57
2021/03/26 21:25:28;;;;;;;13.90;7.85;;;1.20;89.50;;;;;;4321491;33;20089;-58
2021/03/26 21:28:24;;;;;;;13.80;8.30;;;1.20;88.10;;;;;;4321042;33;20067;-57
2021/03/26 21:31:12;;;;;;;14.52;8.50;;;1.20;88.80;;;;;;4327523;33;20075;-57
2021/03/26 21:33:41;;;;;;;12.98;8.70;;;1.20;89.30;;;;;;4328650;33;20071;-58
2021/03/26 21:36:44;;;;;;;12.30;7.78;;;1.10;90.00;;;;;;4334478;33;20153;-57
2021/03/26 21:39:20;;;;;;;12.52;7.80;;;1.20;90.40;;;;;;4348684;33;20078;-57
2021/03/26 21:42:16;;;;;;;14.50;8.70;;;1.20;90.70;;;;;;4323551;33;20089;-58
2021/03/26 21:45:23;;;;;;;12.93;9.27;;;1.00;90.40;;;;;;4325619;33;20095;-57
2021/03/26 21:48:05;;;;;;;13.50;8.60;;;1.00;90.30;;;;;;4312202;33;20171;-57
2021/03/26 21:50:49;;;;;;;15.32;9.20;;;1.00;90.50;;;;;;4327161;33;20076;-57
2021/03/26 21:53:41;;;;;;;14.73;9.40;;;0.80;91.70;;;;;;4331261;33;20262;-56
2021/03/26 21:56:43;;;;;;;13.38;9.57;;;0.80;90.90;;;;;;4321737;33;20160;-57
2021/03/26 21:59:17;;;;;;;15.25;9.70;;;0.80;91.10;;;;;;4341880;33;20521;-57
2021/03/26 22:02:25;;;;;;;17.05;9.70;;;0.90;91.80;;;;;;4342303;33;20067;-56
2021/03/26 22:05:17;;;;;;;13.02;8.13;;;0.80;92.20;;;;;;4331522;33;20086;-57
2021/03/26 22:07:51;;;;;;;13.45;9.00;;;0.70;92.50;;;;;;4318561;33;20066;-56
2021/03/26 22:10:35;;;;;;;13.07;8.35;;;0.60;92.90;;;;;;4319529;33;20083;-56
2021/03/26 22:13:14;;;;;;;13.23;7.72;;;0.60;93.10;;;;;;4328402;33;20098;-55
2021/03/26 22:15:55;;;;;;;13.77;7.65;;;0.60;92.70;;;;;;4318321;33;20098;-57
2021/03/26 22:18:30;;;;;;;13.45;8.05;;;0.70;92.80;;;;;;4332817;33;20071;-56
2021/03/26 22:21:23;;;;;;;12.73;7.47;;;0.50;93.20;;;;;;4331235;33;20098;-59
2021/03/26 22:23:52;;;;;;;13.20;8.40;;;0.60;92.90;;;;;;4303969;33;20092;-57
2021/03/26 22:26:19;;;;;;;10.13;7.30;;;0.50;94.50;;;;;;4322306;33;20150;-56
2021/03/26 22:28:50;;;;;;;12.80;7.25;;;0.50;95.10;;;;;;4328678;33;20166;-56
2021/03/26 22:31:47;;;;;;;10.50;7.43;;;0.50;94.40;;;;;;4328382;33;20095;-56
2021/03/26 22:34:27;;;;;;;12.70;7.57;;;0.40;94.70;;;;;;4310189;33;20198;-56
2021/03/26 22:37:05;;;;;;;10.52;6.95;;;0.40;94.30;;;;;;4307104;33;20083;-56
2021/03/26 22:39:39;;;;;;;12.57;7.68;;;0.40;94.30;;;;;;4331033;33;20075;-56
2021/03/26 22:42:11;;;;;;;12.48;7.82;;;0.40;94.80;;;;;;4330743;33;20504;-56
2021/03/26 22:44:57;;;;;;;12.43;7.30;;;0.40;95.20;;;;;;4316091;33;20072;-56
2021/03/26 22:47:35;;;;;;;12.50;8.15;;;0.40;95.10;;;;;;4329121;33;20151;-57
2021/03/26 22:50:11;;;;;;;12.18;7.47;;;0.40;95.80;;;;;;4318974;33;20125;-56
2021/03/26 22:53:21;;;;;;;11.23;7.25;;;0.30;95.70;;;;;;4340099;33;20052;-57
2021/03/26 22:56:14;;;;;;;13.05;8.40;;;0.40;95.20;;;;;;4320461;33;20099;-57
2021/03/26 22:59:08;;;;;;;12.80;8.10;;;0.30;94.80;;;;;;4333945;33;20167;-56
2021/03/26 23:01:36;;;;;;;12.75;8.27;;;0.20;96.90;;;;;;4342845;33;20150;-57
2021/03/26 23:04:17;;;;;;;13.18;8.80;;;0.20;99.90;;;;;;4318803;33;20423;-57
2021/03/26 23:07:10;;;;;;;14.52;8.05;;;0.20;99.90;;;;;;4319073;33;20479;-57
2021/03/26 23:09:49;;;;;;;12.13;8.07;;;0.10;99.90;;;;;;4317776;33;20107;-56
2021/03/26 23:12:31;;;;;;;13.65;8.23;;;0.10;99.90;;;;;;4328093;33;20074;-58
2021/03/26 23:15:19;;;;;;;13.90;8.38;;;0.00;99.90;;;;;;4315501;33;20431;-58
2021/03/26 23:18:22;;;;;;;10.77;7.53;;;0.00;99.90;;;;;;4320937;33;20149;-57
2021/03/26 23:20:56;;;;;;;12.30;8.15;;;-0.10;99.90;;;;;;4318894;33;20145;-56
2021/03/26 23:24:02;;;;;;;13.75;8.75;;;-0.10;99.90;;;;;;4329851;33;20067;-58
2021/03/26 23:26:45;;;;;;;14.10;8.73;;;-0.20;99.90;;;;;;4302661;33;20087;-57
2021/03/26 23:29:17;;;;;;;13.43;9.05;;;-0.10;99.90;;;;;;4315849;33;20078;-57
2021/03/26 23:31:55;;;;;;;15.18;9.38;;;-0.30;99.90;;;;;;4318145;33;20454;-56
2021/03/26 23:34:24;;;;;;;15.20;9.85;;;-0.40;99.90;;;;;;4315509;33;20091;-57
2021/03/26 23:36:59;;;;;;;15.57;9.77;;;-0.40;99.90;;;;;;4323762;33;20453;-56
2021/03/26 23:39:35;;;;;;;15.30;9.60;;;-0.40;99.90;;;;;;4328397;33;20067;-56
2021/03/26 23:42:11;;;;;;;13.95;9.68;;;-0.40;99.90;;;;;;4318733;33;20081;-56
2021/03/26 23:44:51;;;;;;;16.62;9.55;;;-0.40;99.90;;;;;;4319011;33;20067;-58
2021/03/26 23:47:24;;;;;;;15.73;9.73;;;-0.40;99.90;;;;;;4316953;33;20150;-57
2021/03/26 23:50:06;;;;;;;13.23;9.38;;;-0.50;99.90;;;;;;4315613;33;20502;-56
2021/03/26 23:52:41;;;;;;;15.75;9.48;;;-0.50;99.90;;;;;;4325654;33;20505;-57
2021/03/26 23:55:15;;;;;;;15.27;9.50;;;-0.60;99.90;;;;;;4315895;33;20466;-57
2021/03/26 23:57:42;;;;;;;11.48;8.85;;;-0.70;99.90;;;;;;4329699;33;20069;-56
